Aviation Digital Data Service (ADDS)

Output produced by METARs form (1757 UTC 20 January 2019)
found at http://www.aviationweather.gov/metar/data/
 
NZAA 201730Z AUTO 24013KT 9999 FEW030/// OVC039/// 18/15 Q1012 NOSIG
TAF NZAA 201702Z 2018/2118 24012KT 9999 SCT025 
     FM202200 26015G25KT 9999 BKN020 
     FM210900 24015KT 9999 -SHRA FEW012 BKN020
       
NZCH 201730Z AUTO 11005KT 9999 NCD 16/10 Q0996 NOSIG
TAF NZCH 201702Z 2018/2118 28005KT CAVOK 
     FM210200 22010KT 9999 SCT050 
     BECMG 2103/2105 16015KT 
     BECMG 2107/2109 VRB02KT
       
TAF NZQN 201616Z 2017/2111 26012KT 9999 BKN070 
     BECMG 2020/2022 26015G30KT 
     BECMG 2106/2107 24012KT
       
NZWN 201730Z AUTO 35015KT 310V010 9999 NCD 18/11 Q1003 NOSIG
TAF NZWN 201702Z 2018/2118 34015G30KT 9999 SCT020 
     BECMG 2019/2021 34025G40KT 
     FM210800 32010KT 9999 BKN020 
     BECMG 2110/2112 18008KT 
     BECMG 2116/2118 02005KT